sensor_id;sensor_type;location;lat;lon;timestamp;temperature;humidity
59855;DHT22;45732;52.850;6.896;2023-07-09T00:01:45;22.40;99.90
59855;DHT22;45732;52.850;6.896;2023-07-09T00:04:12;22.40;99.90
59855;DHT22;45732;52.850;6.896;2023-07-09T00:06:38;22.30;99.90
59855;DHT22;45732;52.850;6.896;2023-07-09T00:09:06;22.30;99.90
59855;DHT22;45732;52.850;6.896;2023-07-09T00:11:37;22.30;99.90
59855;DHT22;45732;52.850;6.896;2023-07-09T00:14:05;22.20;99.90
59855;DHT22;45732;52.850;6.896;2023-07-09T00:16:31;22.10;99.90
59855;DHT22;45732;52.850;6.896;2023-07-09T00:18:57;22.10;99.90
59855;DHT22;45732;52.850;6.896;2023-07-09T00:21:22;22.10;99.90
59855;DHT22;45732;52.850;6.896;2023-07-09T00:23:48;21.90;99.90
59855;DHT22;45732;52.850;6.896;2023-07-09T00:26:15;21.80;99.90
59855;DHT22;45732;52.850;6.896;2023-07-09T00:28:42;21.80;99.90
59855;DHT22;45732;52.850;6.896;2023-07-09T00:31:16;21.80;99.90
59855;DHT22;45732;52.850;6.896;2023-07-09T00:33:45;21.70;99.90
59855;DHT22;45732;52.850;6.896;2023-07-09T00:36:29;21.70;99.90
59855;DHT22;45732;52.850;6.896;2023-07-09T00:38:57;21.70;99.90
59855;DHT22;45732;52.850;6.896;2023-07-09T00:41:26;21.70;99.90
59855;DHT22;45732;52.850;6.896;2023-07-09T00:43:53;21.70;99.90
59855;DHT22;45732;52.850;6.896;2023-07-09T00:48:50;21.70;99.90
59855;DHT22;45732;52.850;6.896;2023-07-09T00:51:19;21.70;99.90
59855;DHT22;45732;52.850;6.896;2023-07-09T00:53:51;21.70;99.90
59855;DHT22;45732;52.850;6.896;2023-07-09T00:56:31;21.70;99.90
59855;DHT22;45732;52.850;6.896;2023-07-09T00:59:00;21.70;99.90
59855;DHT22;45732;52.850;6.896;2023-07-09T01:01:30;21.70;99.90
59855;DHT22;45732;52.850;6.896;2023-07-09T01:03:58;21.80;99.90
59855;DHT22;45732;52.850;6.896;2023-07-09T01:06:34;21.80;99.90
59855;DHT22;45732;52.850;6.896;2023-07-09T01:09:02;21.80;99.90
59855;DHT22;45732;52.850;6.896;2023-07-09T01:11:28;21.90;99.90
59855;DHT22;45732;52.850;6.896;2023-07-09T01:13:57;21.80;99.90
59855;DHT22;45732;52.850;6.896;2023-07-09T01:16:28;21.90;99.90
59855;DHT22;45732;52.850;6.896;2023-07-09T01:18:54;21.90;99.90
59855;DHT22;45732;52.850;6.896;2023-07-09T01:21:20;21.90;99.90
59855;DHT22;45732;52.850;6.896;2023-07-09T01:23:47;21.90;99.90
59855;DHT22;45732;52.850;6.896;2023-07-09T01:26:16;21.90;99.90
59855;DHT22;45732;52.850;6.896;2023-07-09T01:28:43;21.80;99.90
59855;DHT22;45732;52.850;6.896;2023-07-09T01:31:14;21.90;99.90
59855;DHT22;45732;52.850;6.896;2023-07-09T01:33:41;21.80;99.90
59855;DHT22;45732;52.850;6.896;2023-07-09T01:36:12;21.80;99.90
59855;DHT22;45732;52.850;6.896;2023-07-09T01:38:40;21.70;99.90
59855;DHT22;45732;52.850;6.896;2023-07-09T01:41:06;21.70;99.90
59855;DHT22;45732;52.850;6.896;2023-07-09T01:43:32;21.80;99.90
59855;DHT22;45732;52.850;6.896;2023-07-09T01:45:58;21.80;99.90
59855;DHT22;45732;52.850;6.896;2023-07-09T01:48:25;21.80;99.90
59855;DHT22;45732;52.850;6.896;2023-07-09T01:50:52;21.70;99.90
59855;DHT22;45732;52.850;6.896;2023-07-09T01:53:21;21.70;99.90
59855;DHT22;45732;52.850;6.896;2023-07-09T01:55:49;21.70;99.90
59855;DHT22;45732;52.850;6.896;2023-07-09T01:58:16;21.60;99.90
59855;DHT22;45732;52.850;6.896;2023-07-09T02:00:42;21.70;99.90
59855;DHT22;45732;52.850;6.896;2023-07-09T02:03:08;21.70;99.90
59855;DHT22;45732;52.850;6.896;2023-07-09T02:05:35;21.60;99.90
59855;DHT22;45732;52.850;6.896;2023-07-09T02:08:02;21.60;99.90
59855;DHT22;45732;52.850;6.896;2023-07-09T02:10:28;21.60;99.90
59855;DHT22;45732;52.850;6.896;2023-07-09T02:12:54;21.60;99.90
59855;DHT22;45732;52.850;6.896;2023-07-09T02:15:19;21.60;99.90
59855;DHT22;45732;52.850;6.896;2023-07-09T02:17:45;21.60;99.90
59855;DHT22;45732;52.850;6.896;2023-07-09T02:20:12;21.60;99.90
59855;DHT22;45732;52.850;6.896;2023-07-09T02:22:39;21.40;99.90
59855;DHT22;45732;52.850;6.896;2023-07-09T02:25:05;21.40;99.90
59855;DHT22;45732;52.850;6.896;2023-07-09T02:27:32;21.40;99.90
59855;DHT22;45732;52.850;6.896;2023-07-09T02:29:58;21.40;99.90
59855;DHT22;45732;52.850;6.896;2023-07-09T02:32:26;21.40;99.90
59855;DHT22;45732;52.850;6.896;2023-07-09T02:34:53;21.40;99.90
59855;DHT22;45732;52.850;6.896;2023-07-09T02:37:24;21.40;99.90
59855;DHT22;45732;52.850;6.896;2023-07-09T02:39:51;21.30;99.90
59855;DHT22;45732;52.850;6.896;2023-07-09T02:42:20;21.30;99.90
59855;DHT22;45732;52.850;6.896;2023-07-09T02:44:47;21.30;99.90
59855;DHT22;45732;52.850;6.896;2023-07-09T02:47:13;21.30;99.90
59855;DHT22;45732;52.850;6.896;2023-07-09T02:49:39;21.30;99.90
59855;DHT22;45732;52.850;6.896;2023-07-09T02:52:06;21.30;99.90
59855;DHT22;45732;52.850;6.896;2023-07-09T02:54:32;21.30;99.90
59855;DHT22;45732;52.850;6.896;2023-07-09T02:56:58;21.30;99.90
59855;DHT22;45732;52.850;6.896;2023-07-09T02:59:24;21.20;99.90
59855;DHT22;45732;52.850;6.896;2023-07-09T03:01:51;21.20;99.90
59855;DHT22;45732;52.850;6.896;2023-07-09T03:04:17;21.20;99.90
59855;DHT22;45732;52.850;6.896;2023-07-09T03:06:45;21.30;99.90
59855;DHT22;45732;52.850;6.896;2023-07-09T03:09:11;21.30;99.90
59855;DHT22;45732;52.850;6.896;2023-07-09T03:11:37;21.20;99.90
59855;DHT22;45732;52.850;6.896;2023-07-09T03:14:03;21.30;99.90
59855;DHT22;45732;52.850;6.896;2023-07-09T03:16:30;21.20;99.90
59855;DHT22;45732;52.850;6.896;2023-07-09T03:18:57;21.20;99.90
59855;DHT22;45732;52.850;6.896;2023-07-09T03:21:23;21.20;99.90
59855;DHT22;45732;52.850;6.896;2023-07-09T03:23:50;21.30;99.90
59855;DHT22;45732;52.850;6.896;2023-07-09T03:26:15;21.30;99.90
59855;DHT22;45732;52.850;6.896;2023-07-09T03:28:41;21.30;99.90
59855;DHT22;45732;52.850;6.896;2023-07-09T03:31:07;21.20;99.90
59855;DHT22;45732;52.850;6.896;2023-07-09T03:33:33;21.20;99.90
59855;DHT22;45732;52.850;6.896;2023-07-09T03:35:59;21.20;99.90
59855;DHT22;45732;52.850;6.896;2023-07-09T03:38:24;21.20;99.90
59855;DHT22;45732;52.850;6.896;2023-07-09T03:40:54;21.20;99.90
59855;DHT22;45732;52.850;6.896;2023-07-09T03:43:20;21.20;99.90
59855;DHT22;45732;52.850;6.896;2023-07-09T03:45:47;21.20;99.90
59855;DHT22;45732;52.850;6.896;2023-07-09T03:48:14;21.20;99.90
59855;DHT22;45732;52.850;6.896;2023-07-09T03:50:43;21.20;99.90
59855;DHT22;45732;52.850;6.896;2023-07-09T03:53:09;21.10;99.90
59855;DHT22;45732;52.850;6.896;2023-07-09T03:55:35;21.20;99.90
59855;DHT22;45732;52.850;6.896;2023-07-09T03:58:01;21.10;99.90
59855;DHT22;45732;52.850;6.896;2023-07-09T04:00:29;21.10;99.90
59855;DHT22;45732;52.850;6.896;2023-07-09T04:02:54;21.00;99.90
59855;DHT22;45732;52.850;6.896;2023-07-09T04:05:23;21.00;99.90
59855;DHT22;45732;52.850;6.896;2023-07-09T04:07:49;21.10;99.90
59855;DHT22;45732;52.850;6.896;2023-07-09T04:10:15;21.00;99.90
59855;DHT22;45732;52.850;6.896;2023-07-09T04:12:41;21.00;99.90
59855;DHT22;45732;52.850;6.896;2023-07-09T04:15:07;21.00;99.90
59855;DHT22;45732;52.850;6.896;2023-07-09T04:17:34;21.00;99.90
59855;DHT22;45732;52.850;6.896;2023-07-09T04:20:01;21.00;99.90
59855;DHT22;45732;52.850;6.896;2023-07-09T04:22:27;21.00;99.90
59855;DHT22;45732;52.850;6.896;2023-07-09T04:24:53;21.00;99.90
59855;DHT22;45732;52.850;6.896;2023-07-09T04:27:19;21.00;99.90
59855;DHT22;45732;52.850;6.896;2023-07-09T04:29:44;21.00;99.90
59855;DHT22;45732;52.850;6.896;2023-07-09T04:32:13;21.00;99.90
59855;DHT22;45732;52.850;6.896;2023-07-09T04:34:39;21.00;99.90
59855;DHT22;45732;52.850;6.896;2023-07-09T04:37:10;21.00;99.90
59855;DHT22;45732;52.850;6.896;2023-07-09T04:39:37;21.00;99.90
59855;DHT22;45732;52.850;6.896;2023-07-09T04:42:03;21.00;99.90
59855;DHT22;45732;52.850;6.896;2023-07-09T04:44:29;21.00;99.90
59855;DHT22;45732;52.850;6.896;2023-07-09T04:46:55;21.00;99.90
59855;DHT22;45732;52.850;6.896;2023-07-09T04:49:21;21.10;99.90
59855;DHT22;45732;52.850;6.896;2023-07-09T04:51:46;21.10;99.90
59855;DHT22;45732;52.850;6.896;2023-07-09T04:54:12;21.10;99.90
59855;DHT22;45732;52.850;6.896;2023-07-09T04:56:41;21.10;99.90
59855;DHT22;45732;52.850;6.896;2023-07-09T04:59:10;21.10;99.90
59855;DHT22;45732;52.850;6.896;2023-07-09T05:01:36;21.20;99.90
59855;DHT22;45732;52.850;6.896;2023-07-09T05:04:02;21.20;99.90
59855;DHT22;45732;52.850;6.896;2023-07-09T05:06:28;21.20;99.90
59855;DHT22;45732;52.850;6.896;2023-07-09T05:08:54;21.30;99.90
59855;DHT22;45732;52.850;6.896;2023-07-09T05:11:19;21.30;99.90
59855;DHT22;45732;52.850;6.896;2023-07-09T05:13:45;21.40;99.90
59855;DHT22;45732;52.850;6.896;2023-07-09T05:16:11;21.40;99.90
59855;DHT22;45732;52.850;6.896;2023-07-09T05:18:37;21.50;99.90
59855;DHT22;45732;52.850;6.896;2023-07-09T05:21:03;21.60;99.90
59855;DHT22;45732;52.850;6.896;2023-07-09T05:23:29;21.70;99.90
59855;DHT22;45732;52.850;6.896;2023-07-09T05:25:59;21.80;99.90
59855;DHT22;45732;52.850;6.896;2023-07-09T05:28:26;21.90;99.90
59855;DHT22;45732;52.850;6.896;2023-07-09T05:30:52;22.00;99.90
59855;DHT22;45732;52.850;6.896;2023-07-09T05:33:18;22.00;99.90
59855;DHT22;45732;52.850;6.896;2023-07-09T05:35:44;22.00;99.90
59855;DHT22;45732;52.850;6.896;2023-07-09T05:38:11;22.10;99.90
59855;DHT22;45732;52.850;6.896;2023-07-09T05:40:37;22.20;99.90
59855;DHT22;45732;52.850;6.896;2023-07-09T05:43:04;22.20;99.90
59855;DHT22;45732;52.850;6.896;2023-07-09T05:45:30;22.20;99.90
59855;DHT22;45732;52.850;6.896;2023-07-09T05:47:58;22.30;99.90
59855;DHT22;45732;52.850;6.896;2023-07-09T05:50:24;22.30;99.90
59855;DHT22;45732;52.850;6.896;2023-07-09T05:52:49;22.30;99.90
59855;DHT22;45732;52.850;6.896;2023-07-09T05:55:15;22.40;99.90
59855;DHT22;45732;52.850;6.896;2023-07-09T05:57:41;22.40;99.90
59855;DHT22;45732;52.850;6.896;2023-07-09T06:00:07;22.40;99.90
59855;DHT22;45732;52.850;6.896;2023-07-09T06:02:34;22.40;99.90
59855;DHT22;45732;52.850;6.896;2023-07-09T06:05:01;22.40;99.90
59855;DHT22;45732;52.850;6.896;2023-07-09T06:07:27;22.40;99.90
59855;DHT22;45732;52.850;6.896;2023-07-09T06:09:53;22.50;99.90
59855;DHT22;45732;52.850;6.896;2023-07-09T06:12:19;22.50;99.90
59855;DHT22;45732;52.850;6.896;2023-07-09T06:14:46;22.50;99.90
59855;DHT22;45732;52.850;6.896;2023-07-09T06:17:12;22.50;99.90
59855;DHT22;45732;52.850;6.896;2023-07-09T06:19:38;22.50;99.90
59855;DHT22;45732;52.850;6.896;2023-07-09T06:22:04;22.50;99.90
59855;DHT22;45732;52.850;6.896;2023-07-09T06:24:30;22.50;99.90
59855;DHT22;45732;52.850;6.896;2023-07-09T06:26:56;22.50;99.90
59855;DHT22;45732;52.850;6.896;2023-07-09T06:29:22;22.60;99.90
59855;DHT22;45732;52.850;6.896;2023-07-09T06:31:48;22.60;99.90
59855;DHT22;45732;52.850;6.896;2023-07-09T06:34:14;22.70;99.90
59855;DHT22;45732;52.850;6.896;2023-07-09T06:36:40;22.80;99.90
59855;DHT22;45732;52.850;6.896;2023-07-09T06:39:06;22.80;99.90
59855;DHT22;45732;52.850;6.896;2023-07-09T06:41:31;22.90;99.90
59855;DHT22;45732;52.850;6.896;2023-07-09T06:44:07;23.00;99.90
59855;DHT22;45732;52.850;6.896;2023-07-09T06:46:33;23.00;99.90
59855;DHT22;45732;52.850;6.896;2023-07-09T06:48:59;23.10;99.90
59855;DHT22;45732;52.850;6.896;2023-07-09T06:51:25;23.20;99.90
59855;DHT22;45732;52.850;6.896;2023-07-09T06:53:51;23.30;99.90
59855;DHT22;45732;52.850;6.896;2023-07-09T06:56:17;23.40;99.90
59855;DHT22;45732;52.850;6.896;2023-07-09T06:58:43;23.50;99.90
59855;DHT22;45732;52.850;6.896;2023-07-09T07:01:11;23.50;99.90
59855;DHT22;45732;52.850;6.896;2023-07-09T07:03:38;23.70;99.90
59855;DHT22;45732;52.850;6.896;2023-07-09T07:06:04;23.70;99.90
59855;DHT22;45732;52.850;6.896;2023-07-09T07:08:32;23.80;99.90
59855;DHT22;45732;52.850;6.896;2023-07-09T07:11:01;23.80;99.90
59855;DHT22;45732;52.850;6.896;2023-07-09T07:13:40;23.90;99.90
59855;DHT22;45732;52.850;6.896;2023-07-09T07:16:08;24.00;99.90
59855;DHT22;45732;52.850;6.896;2023-07-09T07:18:35;24.00;99.90
59855;DHT22;45732;52.850;6.896;2023-07-09T07:21:01;24.10;99.90
59855;DHT22;45732;52.850;6.896;2023-07-09T07:23:27;24.10;99.90
59855;DHT22;45732;52.850;6.896;2023-07-09T07:25:53;24.20;99.90
59855;DHT22;45732;52.850;6.896;2023-07-09T07:28:19;24.30;99.90
59855;DHT22;45732;52.850;6.896;2023-07-09T07:30:45;24.40;99.90
59855;DHT22;45732;52.850;6.896;2023-07-09T07:33:15;24.50;99.90
59855;DHT22;45732;52.850;6.896;2023-07-09T07:35:41;24.50;99.90
59855;DHT22;45732;52.850;6.896;2023-07-09T07:38:07;24.60;99.90
59855;DHT22;45732;52.850;6.896;2023-07-09T07:40:33;24.70;99.90
59855;DHT22;45732;52.850;6.896;2023-07-09T07:42:58;24.80;99.90
59855;DHT22;45732;52.850;6.896;2023-07-09T07:45:25;24.80;99.90
59855;DHT22;45732;52.850;6.896;2023-07-09T07:47:50;24.90;99.90
59855;DHT22;45732;52.850;6.896;2023-07-09T07:50:17;24.90;99.90
59855;DHT22;45732;52.850;6.896;2023-07-09T07:52:43;25.00;99.90
59855;DHT22;45732;52.850;6.896;2023-07-09T07:55:09;25.10;99.90
59855;DHT22;45732;52.850;6.896;2023-07-09T07:57:35;25.10;99.90
59855;DHT22;45732;52.850;6.896;2023-07-09T08:00:02;25.20;99.90
59855;DHT22;45732;52.850;6.896;2023-07-09T08:02:28;25.20;99.90
59855;DHT22;45732;52.850;6.896;2023-07-09T08:04:54;25.30;99.90
59855;DHT22;45732;52.850;6.896;2023-07-09T08:07:20;25.40;99.90
59855;DHT22;45732;52.850;6.896;2023-07-09T08:09:46;25.50;99.90
59855;DHT22;45732;52.850;6.896;2023-07-09T08:12:13;25.60;99.90
59855;DHT22;45732;52.850;6.896;2023-07-09T08:14:40;25.60;99.90
59855;DHT22;45732;52.850;6.896;2023-07-09T08:17:07;25.70;99.90
59855;DHT22;45732;52.850;6.896;2023-07-09T08:19:44;25.80;99.90
59855;DHT22;45732;52.850;6.896;2023-07-09T08:22:11;25.80;99.90
59855;DHT22;45732;52.850;6.896;2023-07-09T08:24:37;25.90;99.90
59855;DHT22;45732;52.850;6.896;2023-07-09T08:27:03;26.00;99.90
59855;DHT22;45732;52.850;6.896;2023-07-09T08:29:29;26.10;99.90
59855;DHT22;45732;52.850;6.896;2023-07-09T08:31:54;26.20;99.90
59855;DHT22;45732;52.850;6.896;2023-07-09T08:34:20;26.20;99.90
59855;DHT22;45732;52.850;6.896;2023-07-09T08:36:46;26.30;99.90
59855;DHT22;45732;52.850;6.896;2023-07-09T08:39:11;26.40;99.90
59855;DHT22;45732;52.850;6.896;2023-07-09T08:41:44;26.40;99.90
59855;DHT22;45732;52.850;6.896;2023-07-09T08:50:02;26.60;99.90
59855;DHT22;45732;52.850;6.896;2023-07-09T08:52:37;26.60;99.90
59855;DHT22;45732;52.850;6.896;2023-07-09T08:55:26;26.60;99.90
59855;DHT22;45732;52.850;6.896;2023-07-09T08:58:29;26.70;99.90
59855;DHT22;45732;52.850;6.896;2023-07-09T09:00:57;26.80;99.90
59855;DHT22;45732;52.850;6.896;2023-07-09T09:06:17;27.00;99.90
59855;DHT22;45732;52.850;6.896;2023-07-09T09:11:27;27.10;99.90
59855;DHT22;45732;52.850;6.896;2023-07-09T09:13:56;27.20;99.90
59855;DHT22;45732;52.850;6.896;2023-07-09T09:16:30;27.30;99.90
59855;DHT22;45732;52.850;6.896;2023-07-09T09:18:58;27.40;99.90
59855;DHT22;45732;52.850;6.896;2023-07-09T09:21:35;27.40;99.90
59855;DHT22;45732;52.850;6.896;2023-07-09T09:24:30;27.50;99.90
59855;DHT22;45732;52.850;6.896;2023-07-09T09:26:58;27.60;99.90
59855;DHT22;45732;52.850;6.896;2023-07-09T09:29:25;27.70;99.90
59855;DHT22;45732;52.850;6.896;2023-07-09T09:31:54;27.80;99.90
59855;DHT22;45732;52.850;6.896;2023-07-09T09:34:26;27.80;99.90
59855;DHT22;45732;52.850;6.896;2023-07-09T09:36:57;27.90;99.90
59855;DHT22;45732;52.850;6.896;2023-07-09T09:39:24;27.90;99.90
59855;DHT22;45732;52.850;6.896;2023-07-09T09:41:57;28.00;99.90
59855;DHT22;45732;52.850;6.896;2023-07-09T09:44:27;28.10;99.90
59855;DHT22;45732;52.850;6.896;2023-07-09T09:46:56;28.20;99.90
59855;DHT22;45732;52.850;6.896;2023-07-09T09:49:22;28.20;99.90
59855;DHT22;45732;52.850;6.896;2023-07-09T09:51:48;28.30;99.90
59855;DHT22;45732;52.850;6.896;2023-07-09T09:54:20;28.40;99.90
59855;DHT22;45732;52.850;6.896;2023-07-09T09:56:48;28.40;99.90
59855;DHT22;45732;52.850;6.896;2023-07-09T09:59:20;28.50;99.90
59855;DHT22;45732;52.850;6.896;2023-07-09T10:01:47;28.50;99.90
59855;DHT22;45732;52.850;6.896;2023-07-09T10:04:21;28.60;99.90
59855;DHT22;45732;52.850;6.896;2023-07-09T10:06:51;28.80;99.90
59855;DHT22;45732;52.850;6.896;2023-07-09T10:12:34;28.90;99.90
59855;DHT22;45732;52.850;6.896;2023-07-09T10:20:36;29.10;99.90
59855;DHT22;45732;52.850;6.896;2023-07-09T10:23:18;29.20;99.90
59855;DHT22;45732;52.850;6.896;2023-07-09T10:25:57;29.30;99.90
59855;DHT22;45732;52.850;6.896;2023-07-09T10:39:21;29.50;99.90
59855;DHT22;45732;52.850;6.896;2023-07-09T10:41:44;29.60;99.90
59855;DHT22;45732;52.850;6.896;2023-07-09T10:44:18;29.60;99.90
59855;DHT22;45732;52.850;6.896;2023-07-09T10:46:49;29.70;99.90
59855;DHT22;45732;52.850;6.896;2023-07-09T10:49:17;29.70;99.90
59855;DHT22;45732;52.850;6.896;2023-07-09T10:51:44;29.80;99.90
59855;DHT22;45732;52.850;6.896;2023-07-09T10:54:35;29.90;99.90
59855;DHT22;45732;52.850;6.896;2023-07-09T10:57:27;30.00;99.90
59855;DHT22;45732;52.850;6.896;2023-07-09T10:59:54;30.10;99.90
59855;DHT22;45732;52.850;6.896;2023-07-09T11:02:31;30.10;99.90
59855;DHT22;45732;52.850;6.896;2023-07-09T11:05:03;30.20;99.90
59855;DHT22;45732;52.850;6.896;2023-07-09T11:09:57;30.30;99.90
59855;DHT22;45732;52.850;6.896;2023-07-09T11:17:40;30.40;99.90
59855;DHT22;45732;52.850;6.896;2023-07-09T11:20:18;30.40;99.90
59855;DHT22;45732;52.850;6.896;2023-07-09T11:22:52;30.40;99.90
59855;DHT22;45732;52.850;6.896;2023-07-09T11:25:39;30.50;99.90
59855;DHT22;45732;52.850;6.896;2023-07-09T11:28:06;30.60;99.90
59855;DHT22;45732;52.850;6.896;2023-07-09T11:30:33;30.60;99.90
59855;DHT22;45732;52.850;6.896;2023-07-09T11:33:01;30.60;99.90
59855;DHT22;45732;52.850;6.896;2023-07-09T11:35:29;30.70;99.90
59855;DHT22;45732;52.850;6.896;2023-07-09T11:38:08;30.70;99.90
59855;DHT22;45732;52.850;6.896;2023-07-09T11:40:54;30.80;99.90
59855;DHT22;45732;52.850;6.896;2023-07-09T11:43:35;30.80;99.60
59855;DHT22;45732;52.850;6.896;2023-07-09T11:46:13;30.80;99.80
59855;DHT22;45732;52.850;6.896;2023-07-09T11:48:40;30.80;99.50
59855;DHT22;45732;52.850;6.896;2023-07-09T11:51:17;30.90;99.40
59855;DHT22;45732;52.850;6.896;2023-07-09T11:53:53;30.90;98.90
59855;DHT22;45732;52.850;6.896;2023-07-09T11:56:24;31.00;98.90
59855;DHT22;45732;52.850;6.896;2023-07-09T11:58:55;31.00;98.90
59855;DHT22;45732;52.850;6.896;2023-07-09T12:01:25;31.00;98.70
59855;DHT22;45732;52.850;6.896;2023-07-09T12:03:52;31.00;98.90
59855;DHT22;45732;52.850;6.896;2023-07-09T12:06:22;31.10;98.40
59855;DHT22;45732;52.850;6.896;2023-07-09T12:08:50;31.00;98.50
59855;DHT22;45732;52.850;6.896;2023-07-09T12:13:47;31.10;98.60
59855;DHT22;45732;52.850;6.896;2023-07-09T12:16:31;31.20;98.30
59855;DHT22;45732;52.850;6.896;2023-07-09T12:18:58;31.20;98.10
59855;DHT22;45732;52.850;6.896;2023-07-09T12:21:25;31.20;97.90
59855;DHT22;45732;52.850;6.896;2023-07-09T12:23:52;31.20;98.10
59855;DHT22;45732;52.850;6.896;2023-07-09T12:26:19;31.20;97.60
59855;DHT22;45732;52.850;6.896;2023-07-09T12:29:04;31.20;97.30
59855;DHT22;45732;52.850;6.896;2023-07-09T12:31:31;31.00;96.90
59855;DHT22;45732;52.850;6.896;2023-07-09T12:33:58;31.00;97.10
59855;DHT22;45732;52.850;6.896;2023-07-09T12:36:28;31.10;97.20
59855;DHT22;45732;52.850;6.896;2023-07-09T12:38:59;31.10;97.50
59855;DHT22;45732;52.850;6.896;2023-07-09T12:41:35;31.00;97.90
59855;DHT22;45732;52.850;6.896;2023-07-09T12:44:01;30.80;97.60
59855;DHT22;45732;52.850;6.896;2023-07-09T12:46:28;30.90;97.80
59855;DHT22;45732;52.850;6.896;2023-07-09T12:48:55;30.90;98.20
59855;DHT22;45732;52.850;6.896;2023-07-09T12:51:23;30.90;98.20
59855;DHT22;45732;52.850;6.896;2023-07-09T12:54:01;31.00;98.40
59855;DHT22;45732;52.850;6.896;2023-07-09T12:56:26;31.00;98.00
59855;DHT22;45732;52.850;6.896;2023-07-09T12:58:56;31.00;97.70
59855;DHT22;45732;52.850;6.896;2023-07-09T13:01:23;31.10;97.50
59855;DHT22;45732;52.850;6.896;2023-07-09T13:03:57;31.10;97.60
59855;DHT22;45732;52.850;6.896;2023-07-09T13:08:58;31.10;97.20
59855;DHT22;45732;52.850;6.896;2023-07-09T13:11:25;31.10;97.00
59855;DHT22;45732;52.850;6.896;2023-07-09T13:13:56;31.10;97.00
59855;DHT22;45732;52.850;6.896;2023-07-09T13:16:23;31.00;96.90
59855;DHT22;45732;52.850;6.896;2023-07-09T13:18:48;31.00;97.10
59855;DHT22;45732;52.850;6.896;2023-07-09T13:21:17;30.90;97.20
59855;DHT22;45732;52.850;6.896;2023-07-09T13:23:43;30.80;97.50
59855;DHT22;45732;52.850;6.896;2023-07-09T13:26:09;30.80;97.20
59855;DHT22;45732;52.850;6.896;2023-07-09T13:28:35;30.70;97.40
59855;DHT22;45732;52.850;6.896;2023-07-09T13:31:13;30.60;97.10
59855;DHT22;45732;52.850;6.896;2023-07-09T13:33:41;30.60;97.40
59855;DHT22;45732;52.850;6.896;2023-07-09T13:36:07;30.50;97.40
59855;DHT22;45732;52.850;6.896;2023-07-09T13:38:34;30.40;96.50
59855;DHT22;45732;52.850;6.896;2023-07-09T13:41:01;30.40;96.20
59855;DHT22;45732;52.850;6.896;2023-07-09T13:43:36;30.30;96.30
59855;DHT22;45732;52.850;6.896;2023-07-09T13:46:03;30.20;96.20
59855;DHT22;45732;52.850;6.896;2023-07-09T13:48:31;30.10;96.30
59855;DHT22;45732;52.850;6.896;2023-07-09T13:50:58;30.10;96.70
59855;DHT22;45732;52.850;6.896;2023-07-09T13:53:29;30.00;97.50
59855;DHT22;45732;52.850;6.896;2023-07-09T13:55:55;29.90;97.60
59855;DHT22;45732;52.850;6.896;2023-07-09T13:58:23;29.80;97.40
59855;DHT22;45732;52.850;6.896;2023-07-09T14:00:53;29.80;98.30
59855;DHT22;45732;52.850;6.896;2023-07-09T14:03:26;29.70;99.00
59855;DHT22;45732;52.850;6.896;2023-07-09T14:05:52;29.60;99.80
59855;DHT22;45732;52.850;6.896;2023-07-09T14:08:18;29.50;99.90
59855;DHT22;45732;52.850;6.896;2023-07-09T14:10:46;29.50;99.90
59855;DHT22;45732;52.850;6.896;2023-07-09T14:13:16;29.50;99.90
59855;DHT22;45732;52.850;6.896;2023-07-09T14:15:43;29.50;99.90
59855;DHT22;45732;52.850;6.896;2023-07-09T14:18:14;29.40;99.90
59855;DHT22;45732;52.850;6.896;2023-07-09T14:20:40;29.40;99.90
59855;DHT22;45732;52.850;6.896;2023-07-09T14:23:12;29.40;99.90
59855;DHT22;45732;52.850;6.896;2023-07-09T14:25:39;29.40;99.90
59855;DHT22;45732;52.850;6.896;2023-07-09T14:28:11;29.40;99.90
59855;DHT22;45732;52.850;6.896;2023-07-09T14:30:38;29.30;99.90
59855;DHT22;45732;52.850;6.896;2023-07-09T14:33:07;29.30;99.90
59855;DHT22;45732;52.850;6.896;2023-07-09T14:35:34;29.30;99.90
59855;DHT22;45732;52.850;6.896;2023-07-09T14:38:01;29.20;99.90
59855;DHT22;45732;52.850;6.896;2023-07-09T14:40:29;29.10;99.90
59855;DHT22;45732;52.850;6.896;2023-07-09T14:42:55;29.10;99.90
59855;DHT22;45732;52.850;6.896;2023-07-09T14:45:25;29.10;99.90
59855;DHT22;45732;52.850;6.896;2023-07-09T14:47:52;29.00;99.90
59855;DHT22;45732;52.850;6.896;2023-07-09T14:50:19;28.90;99.90
59855;DHT22;45732;52.850;6.896;2023-07-09T14:52:46;28.90;99.90
59855;DHT22;45732;52.850;6.896;2023-07-09T14:55:18;28.80;99.90
59855;DHT22;45732;52.850;6.896;2023-07-09T14:57:44;28.80;99.90
59855;DHT22;45732;52.850;6.896;2023-07-09T15:00:19;28.70;99.90
59855;DHT22;45732;52.850;6.896;2023-07-09T15:02:49;28.70;99.90
59855;DHT22;45732;52.850;6.896;2023-07-09T15:05:19;28.60;99.90
59855;DHT22;45732;52.850;6.896;2023-07-09T15:07:46;28.60;99.90
59855;DHT22;45732;52.850;6.896;2023-07-09T15:10:21;28.50;99.90
59855;DHT22;45732;52.850;6.896;2023-07-09T15:12:48;28.40;99.90
59855;DHT22;45732;52.850;6.896;2023-07-09T15:17:43;28.30;99.90
59855;DHT22;45732;52.850;6.896;2023-07-09T15:20:21;28.30;99.90
59855;DHT22;45732;52.850;6.896;2023-07-09T15:22:48;28.30;99.90
59855;DHT22;45732;52.850;6.896;2023-07-09T15:25:22;28.30;99.90
59855;DHT22;45732;52.850;6.896;2023-07-09T15:27:49;28.20;99.90
59855;DHT22;45732;52.850;6.896;2023-07-09T15:30:28;28.20;99.90
59855;DHT22;45732;52.850;6.896;2023-07-09T15:32:59;28.20;99.90
59855;DHT22;45732;52.850;6.896;2023-07-09T15:35:34;28.10;99.90
59855;DHT22;45732;52.850;6.896;2023-07-09T15:40:43;27.80;99.90
59855;DHT22;45732;52.850;6.896;2023-07-09T15:43:09;27.40;99.90
59855;DHT22;45732;52.850;6.896;2023-07-09T15:45:42;27.20;99.90
59855;DHT22;45732;52.850;6.896;2023-07-09T15:50:47;27.00;99.90
59855;DHT22;45732;52.850;6.896;2023-07-09T15:53:13;26.90;99.90
59855;DHT22;45732;52.850;6.896;2023-07-09T15:55:39;26.60;99.90
59855;DHT22;45732;52.850;6.896;2023-07-09T15:58:05;26.40;99.90
59855;DHT22;45732;52.850;6.896;2023-07-09T16:00:33;26.30;99.90
59855;DHT22;45732;52.850;6.896;2023-07-09T16:02:59;26.10;99.90
59855;DHT22;45732;52.850;6.896;2023-07-09T16:05:29;26.00;99.90
59855;DHT22;45732;52.850;6.896;2023-07-09T16:07:58;25.90;99.90
59855;DHT22;45732;52.850;6.896;2023-07-09T16:10:26;25.80;99.90
59855;DHT22;45732;52.850;6.896;2023-07-09T16:12:55;25.70;99.90
59855;DHT22;45732;52.850;6.896;2023-07-09T16:15:22;25.40;99.90
59855;DHT22;45732;52.850;6.896;2023-07-09T16:17:49;25.30;99.90
59855;DHT22;45732;52.850;6.896;2023-07-09T16:20:23;25.00;99.90
59855;DHT22;45732;52.850;6.896;2023-07-09T16:22:52;24.90;99.90
59855;DHT22;45732;52.850;6.896;2023-07-09T16:25:32;24.80;99.90
59855;DHT22;45732;52.850;6.896;2023-07-09T16:27:58;24.50;99.90
59855;DHT22;45732;52.850;6.896;2023-07-09T16:30:25;24.50;99.90
59855;DHT22;45732;52.850;6.896;2023-07-09T16:32:52;24.50;99.90